createdAt,value
2019-05-22T00:02:28.926Z,13.83
2019-05-22T00:05:06.121Z,13.82
2019-05-22T00:07:35.734Z,13.79
2019-05-22T00:10:06.479Z,13.79
2019-05-22T00:12:46.815Z,13.78
2019-05-22T00:15:10.210Z,13.91
2019-05-22T00:17:39.506Z,13.89
2019-05-22T00:20:09.883Z,13.86
2019-05-22T00:22:41.407Z,13.83
2019-05-22T00:25:15.250Z,13.80
2019-05-22T00:27:44.492Z,13.79
2019-05-22T00:30:16.455Z,13.84
2019-05-22T00:32:47.339Z,13.76
2019-05-22T00:35:19.063Z,13.80
2019-05-22T00:37:47.749Z,13.79
2019-05-22T00:40:18.294Z,13.71
2019-05-22T00:43:02.958Z,13.68
2019-05-22T00:45:22.512Z,13.78
2019-05-22T00:47:51.990Z,13.69
2019-05-22T00:50:24.865Z,13.69
2019-05-22T00:53:21.941Z,13.67
2019-05-22T00:56:11.889Z,13.77
2019-05-22T00:58:47.239Z,13.68
2019-05-22T01:01:26.834Z,13.68
2019-05-22T01:03:57.682Z,13.63
2019-05-22T01:06:28.956Z,13.65
2019-05-22T01:08:59.722Z,13.69
2019-05-22T01:11:29.419Z,13.71
2019-05-22T01:13:58.068Z,13.58
2019-05-22T01:16:27.191Z,13.59
2019-05-22T01:18:57.702Z,13.71
2019-05-22T01:21:26.554Z,13.58
2019-05-22T01:23:59.780Z,13.69
2019-05-22T01:26:28.955Z,13.81
2019-05-22T01:28:57.610Z,13.76
2019-05-22T01:31:30.968Z,13.83
2019-05-22T01:34:02.428Z,13.70
2019-05-22T01:36:38.294Z,13.74
2019-05-22T01:39:30.996Z,13.59
2019-05-22T01:42:01.624Z,13.58
2019-05-22T01:44:30.346Z,13.77
2019-05-22T01:47:03.277Z,13.71
2019-05-22T01:49:31.932Z,13.65
2019-05-22T01:52:01.130Z,13.72
2019-05-22T01:54:30.842Z,13.65
2019-05-22T01:57:04.949Z,13.66
2019-05-22T01:59:36.136Z,13.55
2019-05-22T02:02:06.597Z,13.55
2019-05-22T02:04:35.812Z,13.56
2019-05-22T02:07:05.020Z,13.59
2019-05-22T02:09:37.545Z,13.55
2019-05-22T02:12:15.777Z,13.53
2019-05-22T02:14:46.641Z,13.62
2019-05-22T02:17:16.244Z,13.43
2019-05-22T02:19:45.796Z,13.47
2019-05-22T02:22:15.458Z,13.51
2019-05-22T02:24:44.910Z,13.43
2019-05-22T02:27:14.049Z,13.39
2019-05-22T02:29:43.277Z,13.39
2019-05-22T02:32:14.266Z,13.54
2019-05-22T02:34:43.866Z,13.51
2019-05-22T02:37:14.996Z,13.52
2019-05-22T02:39:44.741Z,13.49
2019-05-22T02:42:19.171Z,13.40
2019-05-22T02:44:48.815Z,13.33
2019-05-22T02:47:21.113Z,13.39
2019-05-22T02:49:50.113Z,13.44
2019-05-22T02:52:20.184Z,13.49
2019-05-22T02:54:49.723Z,13.54
2019-05-22T02:57:19.128Z,13.38
2019-05-22T02:59:47.781Z,13.44
2019-05-22T03:02:16.715Z,13.39
2019-05-22T03:04:55.809Z,13.41
2019-05-22T03:07:25.935Z,13.45
2019-05-22T03:09:54.809Z,13.45
2019-05-22T03:12:24.285Z,13.55
2019-05-22T03:14:53.081Z,13.41
2019-05-22T03:17:28.285Z,13.45
2019-05-22T03:19:59.813Z,13.44
2019-05-22T03:22:34.565Z,13.52
2019-05-22T03:25:06.296Z,13.47
2019-05-22T03:27:40.840Z,13.48
2019-05-22T03:30:15.154Z,13.40
2019-05-22T03:32:57.623Z,13.55
2019-05-22T03:35:28.261Z,13.48
2019-05-22T03:37:59.261Z,13.43
2019-05-22T03:40:29.924Z,13.27
2019-05-22T03:43:02.055Z,13.26
2019-05-22T03:45:31.265Z,13.31
2019-05-22T03:48:01.707Z,13.31
2019-05-22T03:50:30.436Z,13.36
2019-05-22T03:53:06.220Z,13.28
2019-05-22T03:55:34.995Z,13.34
2019-05-22T03:58:04.080Z,13.34
2019-05-22T04:00:33.230Z,13.36
2019-05-22T04:03:03.759Z,13.34
2019-05-22T04:05:33.456Z,13.31
2019-05-22T04:08:04.218Z,13.36
2019-05-22T04:10:40.849Z,13.31
2019-05-22T04:13:07.274Z,13.36
2019-05-22T04:15:36.456Z,13.34
2019-05-22T04:18:15.075Z,13.40
2019-05-22T04:20:43.902Z,13.28
2019-05-22T04:23:12.618Z,13.30
2019-05-22T04:25:41.322Z,13.32
2019-05-22T04:28:10.051Z,13.25
2019-05-22T04:30:39.933Z,13.29
2019-05-22T04:33:08.597Z,13.32
2019-05-22T04:35:37.379Z,13.32
2019-05-22T04:38:06.100Z,13.33
2019-05-22T04:40:56.819Z,13.32
2019-05-22T04:43:28.504Z,13.35
2019-05-22T04:45:59.106Z,13.27
2019-05-22T04:48:29.212Z,13.24
2019-05-22T04:51:01.007Z,13.28
2019-05-22T04:53:29.810Z,13.31
2019-05-22T04:55:58.847Z,13.35
2019-05-22T04:58:30.428Z,13.36
2019-05-22T05:00:59.634Z,13.32
2019-05-22T05:03:29.246Z,13.25
2019-05-22T05:05:58.909Z,13.26
2019-05-22T05:08:28.604Z,13.26
2019-05-22T05:10:58.959Z,13.18
2019-05-22T05:13:27.720Z,13.27
2019-05-22T05:15:56.375Z,13.15
2019-05-22T05:18:25.250Z,13.15
2019-05-22T05:20:54.472Z,13.27
2019-05-22T05:23:23.314Z,13.13
2019-05-22T05:25:52.046Z,13.14
2019-05-22T05:28:21.680Z,13.21
2019-05-22T05:30:50.472Z,13.34
2019-05-22T05:33:19.694Z,13.27
2019-05-22T05:35:48.901Z,13.30
2019-05-22T05:38:17.574Z,13.26
2019-05-22T05:40:47.098Z,13.37
2019-05-22T05:43:17.820Z,13.30
2019-05-22T05:45:48.606Z,13.31
2019-05-22T05:48:24.194Z,13.42
2019-05-22T05:51:27.264Z,13.44
2019-05-22T05:54:06.163Z,13.41
2019-05-22T05:56:35.609Z,13.27
2019-05-22T05:59:06.406Z,13.44
2019-05-22T06:01:38.725Z,13.50
2019-05-22T06:04:09.018Z,13.58
2019-05-22T06:07:16.539Z,13.56
2019-05-22T06:09:48.412Z,13.42
2019-05-22T06:12:17.391Z,13.46
2019-05-22T06:14:46.709Z,13.45
2019-05-22T06:17:59.541Z,13.44
2019-05-22T06:20:28.383Z,13.58
2019-05-22T06:23:52.161Z,13.60
2019-05-22T06:26:37.183Z,13.65
2019-05-22T06:29:07.549Z,13.76
2019-05-22T06:31:44.621Z,13.95
2019-05-22T06:34:13.319Z,13.90
2019-05-22T06:36:42.825Z,14.01
2019-05-22T06:39:16.071Z,14.17
2019-05-22T06:41:45.375Z,14.30
2019-05-22T06:44:43.179Z,14.29
2019-05-22T06:47:21.671Z,14.18
2019-05-22T06:49:55.260Z,14.21
2019-05-22T06:52:24.417Z,14.02
2019-05-22T06:54:54.668Z,14.16
2019-05-22T06:57:42.532Z,14.14
2019-05-22T07:00:17.478Z,14.24
2019-05-22T07:02:46.928Z,14.10
2019-05-22T07:05:16.928Z,14.06
2019-05-22T07:07:47.039Z,14.04
2019-05-22T07:10:16.489Z,14.09
2019-05-22T07:12:45.401Z,14.08
2019-05-22T07:15:46.345Z,14.04
2019-05-22T07:18:17.860Z,14.14
2019-05-22T07:20:47.266Z,14.22
2019-05-22T07:23:18.845Z,14.25
2019-05-22T07:25:48.731Z,14.37
2019-05-22T07:28:19.234Z,14.32
2019-05-22T07:30:48.788Z,14.33
2019-05-22T07:33:18.970Z,14.38
2019-05-22T07:36:07.702Z,14.40
2019-05-22T07:38:19.366Z,14.45
2019-05-22T07:40:51.079Z,14.40
2019-05-22T07:43:21.406Z,14.35
2019-05-22T07:45:50.877Z,14.40
2019-05-22T07:48:20.926Z,14.26
2019-05-22T07:50:52.073Z,14.31
2019-05-22T07:53:21.186Z,14.57
2019-05-22T07:55:51.074Z,14.60
2019-05-22T07:58:20.254Z,14.71
2019-05-22T08:00:58.972Z,14.74
2019-05-22T08:03:28.550Z,14.84
2019-05-22T08:05:59.180Z,14.83
2019-05-22T08:08:30.161Z,14.97
2019-05-22T08:10:59.596Z,14.92
2019-05-22T08:13:29.651Z,14.89
2019-05-22T08:15:59.003Z,14.70
2019-05-22T08:18:30.426Z,14.81
2019-05-22T08:20:59.626Z,14.58
2019-05-22T08:23:29.375Z,14.54
2019-05-22T08:25:59.676Z,14.69
2019-05-22T08:28:31.173Z,14.60
2019-05-22T08:31:01.001Z,14.41
2019-05-22T08:33:29.986Z,14.41
2019-05-22T08:35:59.540Z,14.57
2019-05-22T08:38:31.032Z,14.46
2019-05-22T08:41:00.836Z,14.42
2019-05-22T08:43:49.574Z,14.31
2019-05-22T08:46:04.836Z,14.34
2019-05-22T08:48:36.930Z,14.29
2019-05-22T08:51:06.794Z,14.25
2019-05-22T08:53:46.734Z,14.28
2019-05-22T08:56:07.649Z,14.23
2019-05-22T08:58:40.962Z,14.26
2019-05-22T09:01:10.916Z,14.19
2019-05-22T09:03:39.974Z,14.38
2019-05-22T09:06:09.103Z,14.37
2019-05-22T09:08:39.118Z,14.43
2019-05-22T09:11:07.936Z,14.44
2019-05-22T09:13:37.480Z,14.46
2019-05-22T09:16:08.529Z,14.42
2019-05-22T09:18:39.719Z,14.43
2019-05-22T09:21:09.175Z,14.34
2019-05-22T09:23:38.837Z,14.25
2019-05-22T09:26:11.004Z,14.26
2019-05-22T09:28:39.728Z,14.38
2019-05-22T09:31:08.473Z,14.57
2019-05-22T09:33:37.524Z,14.72
2019-05-22T09:36:06.797Z,14.74
2019-05-22T09:38:35.676Z,14.42
2019-05-22T09:41:05.199Z,14.67
2019-05-22T09:43:34.300Z,14.84
2019-05-22T09:46:03.383Z,14.59
2019-05-22T09:48:32.673Z,14.53
2019-05-22T09:51:01.612Z,14.48
2019-05-22T09:53:31.254Z,14.39
2019-05-22T09:55:59.969Z,14.45
2019-05-22T09:58:28.779Z,14.71
2019-05-22T10:00:57.581Z,14.81
2019-05-22T10:03:26.721Z,14.75
2019-05-22T10:05:55.575Z,14.69
2019-05-22T10:08:24.355Z,14.77
2019-05-22T10:10:53.192Z,14.83
2019-05-22T10:13:23.694Z,14.74
2019-05-22T10:15:52.523Z,14.88
2019-05-22T10:18:21.260Z,15.18
2019-05-22T10:20:50.057Z,15.60
2019-05-22T10:23:19.557Z,15.50
2019-05-22T10:25:48.383Z,15.25
2019-05-22T10:28:17.570Z,15.20
2019-05-22T10:30:46.211Z,15.10
2019-05-22T10:33:15.061Z,15.16
2019-05-22T10:35:44.083Z,15.23
2019-05-22T10:38:12.818Z,15.07
2019-05-22T10:40:41.457Z,15.10
2019-05-22T10:43:10.116Z,15.24
2019-05-22T10:45:39.384Z,15.48
2019-05-22T10:48:08.074Z,15.77
2019-05-22T10:50:37.351Z,15.46
2019-05-22T10:53:06.368Z,15.70
2019-05-22T10:55:35.730Z,15.92
2019-05-22T10:58:05.545Z,16.11
2019-05-22T11:00:34.356Z,16.12
2019-05-22T11:03:03.341Z,16.09
2019-05-22T11:05:32.457Z,16.03
2019-05-22T11:08:01.376Z,16.09
2019-05-22T11:10:30.451Z,15.96
2019-05-22T11:12:59.611Z,16.08
2019-05-22T11:15:29.047Z,16.17
2019-05-22T11:17:58.729Z,16.17
2019-05-22T11:20:28.015Z,16.41
2019-05-22T11:22:57.508Z,16.61
2019-05-22T11:25:26.595Z,16.50
2019-05-22T11:27:55.416Z,16.24
2019-05-22T11:30:24.614Z,16.40
2019-05-22T11:32:54.828Z,16.54
2019-05-22T11:35:23.763Z,16.76
2019-05-22T11:37:52.607Z,16.72
2019-05-22T11:40:21.940Z,16.69
2019-05-22T11:42:52.096Z,16.88
2019-05-22T11:45:21.451Z,16.74
2019-05-22T11:47:50.368Z,16.80
2019-05-22T11:50:19.955Z,16.61
2019-05-22T11:52:48.766Z,16.42
2019-05-22T11:55:18.074Z,16.17
2019-05-22T11:57:46.986Z,16.26
2019-05-22T12:00:17.456Z,16.12
2019-05-22T12:02:46.589Z,15.90
2019-05-22T12:05:16.051Z,15.61
2019-05-22T12:07:46.621Z,15.95
2019-05-22T12:10:15.625Z,16.32
2019-05-22T12:12:45.034Z,16.36
2019-05-22T12:15:14.849Z,16.35
2019-05-22T12:17:45.047Z,16.53
2019-05-22T12:20:14.539Z,16.41
2019-05-22T12:22:43.692Z,16.44
2019-05-22T12:25:14.986Z,16.74
2019-05-22T12:27:43.650Z,17.09
2019-05-22T12:30:12.931Z,16.95
2019-05-22T12:32:41.763Z,16.98
2019-05-22T12:35:12.444Z,16.95
2019-05-22T12:37:42.874Z,16.83
2019-05-22T12:40:14.179Z,16.85
2019-05-22T12:42:44.363Z,16.76
2019-05-22T12:45:13.649Z,16.34
2019-05-22T12:47:43.171Z,16.44
2019-05-22T12:50:14.903Z,16.58
2019-05-22T12:52:47.312Z,16.80
2019-05-22T12:55:16.923Z,16.64
2019-05-22T12:57:46.382Z,16.75
2019-05-22T13:00:17.465Z,16.84
2019-05-22T13:02:46.394Z,16.64
2019-05-22T13:05:16.076Z,16.42
2019-05-22T13:07:45.366Z,16.17
2019-05-22T13:10:17.081Z,16.32
2019-05-22T13:12:46.198Z,16.53
2019-05-22T13:15:15.047Z,16.44
2019-05-22T13:17:45.153Z,16.50
2019-05-22T13:20:21.402Z,16.59
2019-05-22T13:22:50.737Z,16.68
2019-05-22T13:25:20.884Z,16.74
2019-05-22T13:27:50.339Z,16.63
2019-05-22T13:30:23.140Z,16.97
2019-05-22T13:32:52.314Z,17.22
2019-05-22T13:35:23.238Z,17.10
2019-05-22T13:37:51.911Z,17.12
2019-05-22T13:40:27.660Z,17.43
2019-05-22T13:42:51.415Z,17.56
2019-05-22T13:45:29.184Z,17.60
2019-05-22T13:47:53.513Z,17.68
2019-05-22T13:50:22.184Z,17.42
2019-05-22T13:52:51.134Z,17.49
2019-05-22T13:55:20.512Z,17.61
2019-05-22T13:57:49.361Z,17.73
2019-05-22T14:00:19.678Z,17.85
2019-05-22T14:02:48.836Z,17.84
2019-05-22T14:05:17.912Z,17.91
2019-05-22T14:07:46.629Z,18.01
2019-05-22T14:10:15.461Z,18.11
2019-05-22T14:12:44.139Z,18.24
2019-05-22T14:15:13.055Z,18.31
2019-05-22T14:17:41.779Z,18.41
2019-05-22T14:20:11.401Z,18.59
2019-05-22T14:22:40.129Z,18.47
2019-05-22T14:25:09.150Z,18.41
2019-05-22T14:27:41.511Z,18.30
2019-05-22T14:30:09.140Z,18.26
2019-05-22T14:32:37.871Z,18.26
2019-05-22T15:10:05.521Z,18.18
2019-05-22T15:12:34.748Z,18.18
2019-05-22T15:15:03.577Z,18.25
2019-05-22T15:17:33.238Z,18.31
2019-05-22T15:20:03.593Z,18.17
2019-05-22T15:22:32.326Z,18.34
2019-05-22T15:25:01.481Z,18.51
2019-05-22T15:27:30.273Z,18.49
2019-05-22T15:30:00.129Z,18.59
2019-05-22T15:32:29.056Z,18.51
2019-05-22T15:34:57.966Z,18.64
2019-05-22T15:37:28.408Z,18.67
2019-05-22T15:39:58.075Z,18.64
2019-05-22T15:42:38.333Z,18.51
2019-05-22T15:45:09.628Z,18.51
2019-05-22T15:47:53.151Z,18.42
2019-05-22T15:50:13.271Z,18.49
2019-05-22T15:52:43.229Z,18.42
2019-05-22T15:55:12.962Z,18.30
2019-05-22T15:58:48.905Z,18.34
2019-05-22T16:01:20.019Z,18.31
2019-05-22T16:03:49.378Z,18.38
2019-05-22T16:06:19.101Z,18.34
2019-05-22T16:08:48.689Z,18.39
2019-05-22T16:11:18.730Z,18.57
2019-05-22T16:14:01.923Z,18.57
2019-05-22T16:16:32.106Z,18.58
2019-05-22T16:19:04.833Z,18.66
2019-05-22T16:21:34.957Z,18.76
2019-05-22T16:24:12.729Z,18.85
2019-05-22T16:27:02.689Z,18.97
2019-05-22T16:29:36.884Z,19.05
2019-05-22T16:32:10.814Z,19.16
2019-05-22T16:34:43.332Z,19.27
2019-05-22T16:37:14.406Z,19.27
2019-05-22T16:39:52.482Z,19.36
2019-05-22T16:42:26.565Z,19.49
2019-05-22T16:45:05.822Z,19.48
2019-05-22T16:47:38.229Z,19.47
2019-05-22T16:50:11.085Z,19.34
2019-05-22T16:52:46.172Z,19.25
2019-05-22T16:55:28.075Z,19.09
2019-05-22T17:02:18.916Z,19.53
2019-05-22T17:05:56.671Z,20.10
2019-05-22T17:08:48.663Z,20.74
2019-05-22T17:12:04.876Z,20.74
2019-05-22T17:14:34.572Z,20.93
2019-05-22T17:17:03.314Z,21.33
2019-05-22T17:19:32.180Z,20.82
2019-05-22T17:22:07.884Z,21.33
2019-05-22T17:24:36.473Z,21.33
2019-05-22T17:27:07.000Z,21.34
2019-05-22T17:29:36.035Z,21.49
2019-05-22T17:32:05.135Z,21.36
2019-05-22T17:34:38.624Z,21.13
2019-05-22T17:37:11.506Z,21.13
2019-05-22T17:39:44.139Z,21.29
2019-05-22T17:42:14.669Z,21.29
2019-05-22T17:44:45.855Z,20.46
2019-05-22T17:47:14.647Z,20.18
2019-05-22T17:49:43.750Z,20.01
2019-05-22T17:52:13.329Z,20.01
2019-05-22T17:54:42.761Z,19.73
2019-05-22T17:57:11.516Z,19.34
2019-05-22T17:59:40.744Z,19.34
2019-05-22T18:02:11.371Z,19.14
2019-05-22T18:04:40.026Z,18.95
2019-05-22T18:07:09.318Z,19.00
2019-05-22T18:09:38.830Z,18.99
2019-05-22T18:12:16.538Z,18.88
2019-05-22T18:33:56.607Z,17.98
2019-05-22T18:48:54.219Z,17.34
2019-05-22T18:52:11.897Z,17.34
2019-05-22T19:18:09.587Z,16.44
2019-05-22T19:32:25.551Z,15.70
2019-05-22T21:28:37.808Z,11.66
2019-05-22T21:31:15.087Z,11.51
2019-05-22T21:34:03.824Z,11.51
2019-05-22T21:36:49.012Z,11.18
2019-05-22T21:39:29.985Z,11.41
2019-05-22T21:42:01.926Z,11.53
2019-05-22T21:45:05.895Z,11.40
2019-05-22T21:47:40.930Z,11.04
2019-05-22T21:50:25.027Z,10.88
2019-05-22T21:53:16.897Z,10.75
2019-05-22T21:56:06.387Z,10.84
2019-05-22T21:58:54.191Z,10.81
2019-05-22T22:01:36.567Z,10.64
2019-05-22T22:04:29.560Z,10.79
2019-05-22T22:07:27.962Z,10.98
2019-05-22T22:10:18.324Z,10.95
2019-05-22T22:12:55.086Z,10.63
2019-05-22T22:15:51.970Z,10.44
2019-05-22T22:18:47.777Z,10.34
2019-05-22T22:21:58.138Z,10.33
2019-05-22T22:25:27.242Z,10.33
2019-05-22T22:28:15.797Z,10.33
2019-05-22T22:31:04.400Z,10.22
2019-05-22T22:33:57.500Z,10.36
2019-05-22T22:36:34.577Z,10.18
2019-05-22T22:39:29.614Z,10.16
2019-05-22T22:42:12.775Z,10.05
2019-05-22T22:45:15.360Z,10.07
2019-05-22T22:48:18.286Z,10.17
2019-05-22T22:54:31.196Z,9.72
2019-05-22T22:57:43.845Z,9.82
2019-05-22T23:00:39.790Z,9.62
2019-05-22T23:03:23.646Z,9.60
2019-05-22T23:05:53.641Z,9.60
2019-05-22T23:08:27.462Z,9.64
2019-05-22T23:10:56.131Z,9.68
2019-05-22T23:13:25.347Z,9.59
2019-05-22T23:15:54.501Z,9.59
2019-05-22T23:19:07.773Z,9.52
2019-05-22T23:21:36.017Z,9.52
2019-05-22T23:24:04.250Z,9.47
2019-05-22T23:26:33.846Z,9.68
2019-05-22T23:29:03.064Z,9.68
2019-05-22T23:31:33.031Z,9.64
2019-05-22T23:34:02.051Z,9.72
2019-05-22T23:36:30.695Z,9.75
2019-05-22T23:39:01.256Z,9.52
2019-05-22T23:41:33.114Z,9.54
2019-05-22T23:44:02.594Z,9.59
2019-05-22T23:46:32.939Z,9.61
2019-05-22T23:49:02.262Z,9.71
2019-05-22T23:51:30.891Z,9.73
2019-05-22T23:54:01.662Z,9.50
2019-05-22T23:56:32.677Z,9.35
2019-05-22T23:59:02.087Z,9.19
